sensor_id;sensor_type;location;lat;lon;timestamp;P1;durP1;ratioP1;P2;durP2;ratioP2
46036;SDS011;31769;49.304;8.428;2023-03-16T00:00:47;21.33;;;15.82;;
46036;SDS011;31769;49.304;8.428;2023-03-16T00:03:47;20.45;;;16.40;;
46036;SDS011;31769;49.304;8.428;2023-03-16T00:06:57;22.67;;;16.50;;
46036;SDS011;31769;49.304;8.428;2023-03-16T00:09:58;21.73;;;16.20;;
46036;SDS011;31769;49.304;8.428;2023-03-16T00:12:59;20.05;;;16.38;;
46036;SDS011;31769;49.304;8.428;2023-03-16T00:16:02;24.38;;;15.48;;
46036;SDS011;31769;49.304;8.428;2023-03-16T00:19:03;19.38;;;15.23;;
46036;SDS011;31769;49.304;8.428;2023-03-16T00:22:04;20.80;;;16.17;;
46036;SDS011;31769;49.304;8.428;2023-03-16T00:25:05;17.98;;;15.23;;
46036;SDS011;31769;49.304;8.428;2023-03-16T00:28:07;20.35;;;16.77;;
46036;SDS011;31769;49.304;8.428;2023-03-16T00:31:08;18.23;;;15.63;;
46036;SDS011;31769;49.304;8.428;2023-03-16T00:34:13;19.33;;;15.52;;
46036;SDS011;31769;49.304;8.428;2023-03-16T00:37:15;20.60;;;16.30;;
46036;SDS011;31769;49.304;8.428;2023-03-16T00:40:17;20.15;;;16.23;;
46036;SDS011;31769;49.304;8.428;2023-03-16T00:43:18;23.50;;;16.10;;
46036;SDS011;31769;49.304;8.428;2023-03-16T00:50:41;21.15;;;16.33;;
46036;SDS011;31769;49.304;8.428;2023-03-16T00:53:43;21.35;;;16.30;;
46036;SDS011;31769;49.304;8.428;2023-03-16T00:56:45;20.38;;;16.73;;
46036;SDS011;31769;49.304;8.428;2023-03-16T00:59:46;20.17;;;16.67;;
46036;SDS011;31769;49.304;8.428;2023-03-16T01:02:47;25.27;;;17.90;;
46036;SDS011;31769;49.304;8.428;2023-03-16T01:05:48;21.35;;;16.92;;
46036;SDS011;31769;49.304;8.428;2023-03-16T01:08:48;24.05;;;17.55;;
46036;SDS011;31769;49.304;8.428;2023-03-16T01:11:51;24.77;;;18.73;;
46036;SDS011;31769;49.304;8.428;2023-03-16T01:14:53;22.48;;;18.10;;
46036;SDS011;31769;49.304;8.428;2023-03-16T01:17:54;22.58;;;18.88;;
46036;SDS011;31769;49.304;8.428;2023-03-16T01:20:55;23.20;;;18.25;;
46036;SDS011;31769;49.304;8.428;2023-03-16T01:23:56;24.58;;;18.85;;
46036;SDS011;31769;49.304;8.428;2023-03-16T01:26:57;26.60;;;20.08;;
46036;SDS011;31769;49.304;8.428;2023-03-16T01:29:58;26.25;;;19.63;;
46036;SDS011;31769;49.304;8.428;2023-03-16T01:32:59;26.25;;;20.05;;
46036;SDS011;31769;49.304;8.428;2023-03-16T01:36:03;28.33;;;20.45;;
46036;SDS011;31769;49.304;8.428;2023-03-16T01:39:14;24.20;;;19.48;;
46036;SDS011;31769;49.304;8.428;2023-03-16T01:42:18;29.00;;;20.58;;
46036;SDS011;31769;49.304;8.428;2023-03-16T01:52:11;28.95;;;22.27;;
46036;SDS011;31769;49.304;8.428;2023-03-16T01:55:15;31.65;;;22.58;;
46036;SDS011;31769;49.304;8.428;2023-03-16T01:58:17;30.77;;;22.90;;
46036;SDS011;31769;49.304;8.428;2023-03-16T02:01:18;29.77;;;22.35;;
46036;SDS011;31769;49.304;8.428;2023-03-16T02:07:34;36.20;;;24.58;;
46036;SDS011;31769;49.304;8.428;2023-03-16T02:10:41;32.45;;;23.73;;
46036;SDS011;31769;49.304;8.428;2023-03-16T02:13:44;34.40;;;25.27;;
46036;SDS011;31769;49.304;8.428;2023-03-16T02:16:45;34.08;;;24.83;;
46036;SDS011;31769;49.304;8.428;2023-03-16T02:22:52;33.03;;;24.35;;
46036;SDS011;31769;49.304;8.428;2023-03-16T02:25:56;35.50;;;25.38;;
46036;SDS011;31769;49.304;8.428;2023-03-16T02:32:10;33.13;;;25.10;;
46036;SDS011;31769;49.304;8.428;2023-03-16T02:35:12;36.42;;;25.35;;
46036;SDS011;31769;49.304;8.428;2023-03-16T02:38:13;36.17;;;26.20;;
46036;SDS011;31769;49.304;8.428;2023-03-16T02:41:22;32.90;;;24.73;;
46036;SDS011;31769;49.304;8.428;2023-03-16T02:44:32;32.85;;;24.13;;
46036;SDS011;31769;49.304;8.428;2023-03-16T02:47:40;32.60;;;24.48;;
46036;SDS011;31769;49.304;8.428;2023-03-16T02:50:43;35.45;;;24.92;;
46036;SDS011;31769;49.304;8.428;2023-03-16T02:53:48;36.13;;;24.85;;
46036;SDS011;31769;49.304;8.428;2023-03-16T02:56:49;35.50;;;25.23;;
46036;SDS011;31769;49.304;8.428;2023-03-16T02:59:50;34.70;;;25.05;;
46036;SDS011;31769;49.304;8.428;2023-03-16T03:02:51;32.20;;;26.23;;
46036;SDS011;31769;49.304;8.428;2023-03-16T03:05:52;32.70;;;27.27;;
46036;SDS011;31769;49.304;8.428;2023-03-16T03:08:52;32.75;;;27.38;;
46036;SDS011;31769;49.304;8.428;2023-03-16T03:11:54;29.98;;;24.63;;
46036;SDS011;31769;49.304;8.428;2023-03-16T03:14:55;30.58;;;26.35;;
46036;SDS011;31769;49.304;8.428;2023-03-16T03:17:56;29.95;;;26.35;;
46036;SDS011;31769;49.304;8.428;2023-03-16T03:20:58;30.10;;;26.70;;
46036;SDS011;31769;49.304;8.428;2023-03-16T03:23:58;31.60;;;26.55;;
46036;SDS011;31769;49.304;8.428;2023-03-16T03:26:59;33.88;;;28.83;;
46036;SDS011;31769;49.304;8.428;2023-03-16T03:30:04;32.03;;;27.38;;
46036;SDS011;31769;49.304;8.428;2023-03-16T03:33:06;30.55;;;26.73;;
46036;SDS011;31769;49.304;8.428;2023-03-16T03:36:07;32.35;;;28.50;;
46036;SDS011;31769;49.304;8.428;2023-03-16T03:39:10;34.97;;;28.20;;
46036;SDS011;31769;49.304;8.428;2023-03-16T03:42:11;31.67;;;27.17;;
46036;SDS011;31769;49.304;8.428;2023-03-16T03:45:12;32.90;;;28.52;;
46036;SDS011;31769;49.304;8.428;2023-03-16T03:48:14;32.80;;;28.05;;
46036;SDS011;31769;49.304;8.428;2023-03-16T03:51:14;31.33;;;26.80;;
46036;SDS011;31769;49.304;8.428;2023-03-16T03:54:38;31.33;;;26.85;;
46036;SDS011;31769;49.304;8.428;2023-03-16T03:57:42;30.13;;;26.23;;
46036;SDS011;31769;49.304;8.428;2023-03-16T04:00:43;28.95;;;25.13;;
46036;SDS011;31769;49.304;8.428;2023-03-16T04:03:44;33.05;;;28.27;;
46036;SDS011;31769;49.304;8.428;2023-03-16T04:06:45;29.88;;;26.27;;
46036;SDS011;31769;49.304;8.428;2023-03-16T04:09:46;30.95;;;24.40;;
46036;SDS011;31769;49.304;8.428;2023-03-16T04:12:59;29.35;;;23.85;;
46036;SDS011;31769;49.304;8.428;2023-03-16T04:16:04;27.85;;;21.23;;
46036;SDS011;31769;49.304;8.428;2023-03-16T04:19:15;28.63;;;24.40;;
46036;SDS011;31769;49.304;8.428;2023-03-16T04:22:16;30.27;;;23.95;;
46036;SDS011;31769;49.304;8.428;2023-03-16T04:25:18;27.35;;;21.45;;
46036;SDS011;31769;49.304;8.428;2023-03-16T04:28:21;27.05;;;21.92;;
46036;SDS011;31769;49.304;8.428;2023-03-16T04:31:25;28.95;;;21.92;;
46036;SDS011;31769;49.304;8.428;2023-03-16T04:34:26;29.45;;;21.65;;
46036;SDS011;31769;49.304;8.428;2023-03-16T04:37:30;29.80;;;23.10;;
46036;SDS011;31769;49.304;8.428;2023-03-16T04:40:33;27.30;;;21.85;;
46036;SDS011;31769;49.304;8.428;2023-03-16T04:43:44;28.58;;;21.95;;
46036;SDS011;31769;49.304;8.428;2023-03-16T04:46:51;26.95;;;22.95;;
46036;SDS011;31769;49.304;8.428;2023-03-16T04:49:53;27.00;;;21.75;;
46036;SDS011;31769;49.304;8.428;2023-03-16T04:52:55;26.00;;;20.98;;
46036;SDS011;31769;49.304;8.428;2023-03-16T04:55:56;28.67;;;21.80;;
46036;SDS011;31769;49.304;8.428;2023-03-16T04:58:58;29.63;;;22.48;;
46036;SDS011;31769;49.304;8.428;2023-03-16T05:02:03;26.30;;;21.38;;
46036;SDS011;31769;49.304;8.428;2023-03-16T05:05:04;27.90;;;20.98;;
46036;SDS011;31769;49.304;8.428;2023-03-16T05:08:06;30.02;;;24.45;;
46036;SDS011;31769;49.304;8.428;2023-03-16T05:11:09;35.80;;;26.88;;
46036;SDS011;31769;49.304;8.428;2023-03-16T05:14:19;28.77;;;23.17;;
46036;SDS011;31769;49.304;8.428;2023-03-16T05:17:31;27.70;;;20.92;;
46036;SDS011;31769;49.304;8.428;2023-03-16T05:20:33;29.20;;;22.10;;
46036;SDS011;31769;49.304;8.428;2023-03-16T05:23:35;27.52;;;21.60;;
46036;SDS011;31769;49.304;8.428;2023-03-16T05:26:37;30.80;;;22.92;;
46036;SDS011;31769;49.304;8.428;2023-03-16T05:29:43;28.35;;;22.67;;
46036;SDS011;31769;49.304;8.428;2023-03-16T05:32:45;28.98;;;22.63;;
46036;SDS011;31769;49.304;8.428;2023-03-16T05:35:47;29.23;;;22.08;;
46036;SDS011;31769;49.304;8.428;2023-03-16T05:38:48;31.00;;;23.20;;
46036;SDS011;31769;49.304;8.428;2023-03-16T05:42:04;33.25;;;23.88;;
46036;SDS011;31769;49.304;8.428;2023-03-16T05:45:23;31.92;;;22.58;;
46036;SDS011;31769;49.304;8.428;2023-03-16T05:48:46;29.90;;;22.98;;
46036;SDS011;31769;49.304;8.428;2023-03-16T05:51:49;29.13;;;22.23;;
46036;SDS011;31769;49.304;8.428;2023-03-16T05:54:50;29.17;;;23.20;;
46036;SDS011;31769;49.304;8.428;2023-03-16T05:57:50;28.10;;;21.60;;
46036;SDS011;31769;49.304;8.428;2023-03-16T06:00:52;29.33;;;21.15;;
46036;SDS011;31769;49.304;8.428;2023-03-16T06:03:59;43.05;;;31.55;;
46036;SDS011;31769;49.304;8.428;2023-03-16T06:07:03;31.48;;;23.35;;
46036;SDS011;31769;49.304;8.428;2023-03-16T06:10:05;28.15;;;22.75;;
46036;SDS011;31769;49.304;8.428;2023-03-16T06:13:07;29.25;;;22.55;;
46036;SDS011;31769;49.304;8.428;2023-03-16T06:16:08;27.77;;;21.25;;
46036;SDS011;31769;49.304;8.428;2023-03-16T06:19:10;28.05;;;22.15;;
46036;SDS011;31769;49.304;8.428;2023-03-16T06:22:11;28.63;;;21.27;;
46036;SDS011;31769;49.304;8.428;2023-03-16T06:25:13;27.38;;;21.75;;
46036;SDS011;31769;49.304;8.428;2023-03-16T06:28:16;28.10;;;20.90;;
46036;SDS011;31769;49.304;8.428;2023-03-16T06:31:17;26.35;;;20.98;;
46036;SDS011;31769;49.304;8.428;2023-03-16T06:34:20;28.10;;;21.55;;
46036;SDS011;31769;49.304;8.428;2023-03-16T06:37:22;27.02;;;21.30;;
46036;SDS011;31769;49.304;8.428;2023-03-16T06:40:23;30.05;;;22.13;;
46036;SDS011;31769;49.304;8.428;2023-03-16T06:43:23;28.00;;;22.35;;
46036;SDS011;31769;49.304;8.428;2023-03-16T06:46:25;31.45;;;23.55;;
46036;SDS011;31769;49.304;8.428;2023-03-16T06:49:27;29.40;;;23.13;;
46036;SDS011;31769;49.304;8.428;2023-03-16T06:52:29;30.08;;;23.80;;
46036;SDS011;31769;49.304;8.428;2023-03-16T06:55:31;32.60;;;25.90;;
46036;SDS011;31769;49.304;8.428;2023-03-16T06:58:33;34.00;;;25.20;;
46036;SDS011;31769;49.304;8.428;2023-03-16T07:01:35;31.10;;;23.90;;
46036;SDS011;31769;49.304;8.428;2023-03-16T07:04:36;29.48;;;23.17;;
46036;SDS011;31769;49.304;8.428;2023-03-16T07:07:37;29.02;;;23.30;;
46036;SDS011;31769;49.304;8.428;2023-03-16T07:10:39;27.75;;;23.50;;
46036;SDS011;31769;49.304;8.428;2023-03-16T07:13:40;27.27;;;22.30;;
46036;SDS011;31769;49.304;8.428;2023-03-16T07:16:41;29.63;;;23.17;;
46036;SDS011;31769;49.304;8.428;2023-03-16T07:19:43;31.85;;;22.48;;
46036;SDS011;31769;49.304;8.428;2023-03-16T07:22:46;33.83;;;25.45;;
46036;SDS011;31769;49.304;8.428;2023-03-16T07:25:47;28.38;;;22.77;;
46036;SDS011;31769;49.304;8.428;2023-03-16T07:28:50;27.30;;;21.67;;
46036;SDS011;31769;49.304;8.428;2023-03-16T07:31:51;24.95;;;20.83;;
46036;SDS011;31769;49.304;8.428;2023-03-16T07:34:56;23.67;;;20.60;;
46036;SDS011;31769;49.304;8.428;2023-03-16T07:37:58;26.25;;;22.05;;
46036;SDS011;31769;49.304;8.428;2023-03-16T07:40:59;25.42;;;21.75;;
46036;SDS011;31769;49.304;8.428;2023-03-16T07:44:01;28.88;;;21.95;;
46036;SDS011;31769;49.304;8.428;2023-03-16T07:47:01;27.33;;;21.73;;
46036;SDS011;31769;49.304;8.428;2023-03-16T07:50:04;24.70;;;20.45;;
46036;SDS011;31769;49.304;8.428;2023-03-16T07:53:06;23.67;;;21.13;;
46036;SDS011;31769;49.304;8.428;2023-03-16T07:56:11;22.92;;;20.38;;
46036;SDS011;31769;49.304;8.428;2023-03-16T07:59:13;23.73;;;21.05;;
46036;SDS011;31769;49.304;8.428;2023-03-16T08:02:16;26.27;;;22.42;;
46036;SDS011;31769;49.304;8.428;2023-03-16T08:05:18;24.58;;;21.73;;
46036;SDS011;31769;49.304;8.428;2023-03-16T08:08:24;23.77;;;21.00;;
46036;SDS011;31769;49.304;8.428;2023-03-16T08:11:25;21.27;;;19.02;;
46036;SDS011;31769;49.304;8.428;2023-03-16T08:14:32;24.60;;;20.27;;
46036;SDS011;31769;49.304;8.428;2023-03-16T08:17:42;22.92;;;20.45;;
46036;SDS011;31769;49.304;8.428;2023-03-16T08:20:49;21.90;;;19.63;;
46036;SDS011;31769;49.304;8.428;2023-03-16T08:23:50;20.80;;;18.60;;
46036;SDS011;31769;49.304;8.428;2023-03-16T08:26:52;19.52;;;17.42;;
46036;SDS011;31769;49.304;8.428;2023-03-16T08:29:53;20.85;;;18.52;;
46036;SDS011;31769;49.304;8.428;2023-03-16T08:32:58;19.13;;;17.13;;
46036;SDS011;31769;49.304;8.428;2023-03-16T08:36:00;19.45;;;17.42;;
46036;SDS011;31769;49.304;8.428;2023-03-16T08:39:01;21.48;;;18.45;;
46036;SDS011;31769;49.304;8.428;2023-03-16T08:42:05;18.92;;;16.92;;
46036;SDS011;31769;49.304;8.428;2023-03-16T08:45:13;17.67;;;15.88;;
46036;SDS011;31769;49.304;8.428;2023-03-16T08:48:16;18.38;;;16.58;;
46036;SDS011;31769;49.304;8.428;2023-03-16T08:51:21;18.63;;;16.65;;
46036;SDS011;31769;49.304;8.428;2023-03-16T08:54:21;17.60;;;15.82;;
46036;SDS011;31769;49.304;8.428;2023-03-16T08:57:22;16.98;;;15.27;;
46036;SDS011;31769;49.304;8.428;2023-03-16T09:00:23;16.98;;;15.30;;
46036;SDS011;31769;49.304;8.428;2023-03-16T09:03:24;16.45;;;14.95;;
46036;SDS011;31769;49.304;8.428;2023-03-16T09:06:26;15.85;;;14.20;;
46036;SDS011;31769;49.304;8.428;2023-03-16T09:09:27;15.75;;;14.18;;
46036;SDS011;31769;49.304;8.428;2023-03-16T09:12:30;15.70;;;13.55;;
46036;SDS011;31769;49.304;8.428;2023-03-16T09:15:31;16.98;;;15.27;;
46036;SDS011;31769;49.304;8.428;2023-03-16T09:18:32;14.45;;;12.95;;
46036;SDS011;31769;49.304;8.428;2023-03-16T09:21:34;15.02;;;13.20;;
46036;SDS011;31769;49.304;8.428;2023-03-16T09:24:35;14.82;;;12.55;;
46036;SDS011;31769;49.304;8.428;2023-03-16T09:27:36;13.60;;;12.25;;
46036;SDS011;31769;49.304;8.428;2023-03-16T09:30:37;13.48;;;12.18;;
46036;SDS011;31769;49.304;8.428;2023-03-16T09:33:38;13.88;;;12.48;;
46036;SDS011;31769;49.304;8.428;2023-03-16T09:36:39;12.57;;;11.27;;
46036;SDS011;31769;49.304;8.428;2023-03-16T09:39:41;13.20;;;11.85;;
46036;SDS011;31769;49.304;8.428;2023-03-16T09:42:44;13.82;;;12.43;;
46036;SDS011;31769;49.304;8.428;2023-03-16T09:49:17;14.70;;;13.15;;
46036;SDS011;31769;49.304;8.428;2023-03-16T09:55:36;11.80;;;10.80;;
46036;SDS011;31769;49.304;8.428;2023-03-16T09:58:38;12.45;;;11.25;;
46036;SDS011;31769;49.304;8.428;2023-03-16T10:08:22;13.48;;;12.07;;
46036;SDS011;31769;49.304;8.428;2023-03-16T10:11:37;12.07;;;10.85;;
46036;SDS011;31769;49.304;8.428;2023-03-16T10:14:53;11.70;;;10.50;;
46036;SDS011;31769;49.304;8.428;2023-03-16T10:18:17;10.52;;;9.43;;
46036;SDS011;31769;49.304;8.428;2023-03-16T10:21:28;19.00;;;15.15;;
46036;SDS011;31769;49.304;8.428;2023-03-16T10:24:37;11.98;;;10.35;;
46036;SDS011;31769;49.304;8.428;2023-03-16T10:27:43;11.73;;;10.52;;
46036;SDS011;31769;49.304;8.428;2023-03-16T10:30:49;10.30;;;9.27;;
46036;SDS011;31769;49.304;8.428;2023-03-16T10:33:56;10.85;;;9.25;;
46036;SDS011;31769;49.304;8.428;2023-03-16T10:37:04;10.07;;;8.10;;
46036;SDS011;31769;49.304;8.428;2023-03-16T10:40:09;10.02;;;9.00;;
46036;SDS011;31769;49.304;8.428;2023-03-16T10:43:12;8.55;;;7.60;;
46036;SDS011;31769;49.304;8.428;2023-03-16T10:46:13;8.68;;;7.22;;
46036;SDS011;31769;49.304;8.428;2023-03-16T10:49:22;8.05;;;6.57;;
46036;SDS011;31769;49.304;8.428;2023-03-16T10:55:44;6.53;;;5.32;;
46036;SDS011;31769;49.304;8.428;2023-03-16T10:58:47;7.50;;;6.68;;
46036;SDS011;31769;49.304;8.428;2023-03-16T11:01:48;6.43;;;5.10;;
46036;SDS011;31769;49.304;8.428;2023-03-16T11:04:49;4.97;;;4.47;;
46036;SDS011;31769;49.304;8.428;2023-03-16T11:08:05;6.38;;;4.90;;
46036;SDS011;31769;49.304;8.428;2023-03-16T11:11:28;5.97;;;4.82;;
46036;SDS011;31769;49.304;8.428;2023-03-16T11:14:32;8.85;;;6.35;;
46036;SDS011;31769;49.304;8.428;2023-03-16T11:17:35;5.10;;;3.63;;
46036;SDS011;31769;49.304;8.428;2023-03-16T11:20:42;6.53;;;5.90;;
46036;SDS011;31769;49.304;8.428;2023-03-16T11:23:46;6.53;;;5.63;;
46036;SDS011;31769;49.304;8.428;2023-03-16T11:26:54;7.05;;;5.35;;
46036;SDS011;31769;49.304;8.428;2023-03-16T11:33:30;5.55;;;5.05;;
46036;SDS011;31769;49.304;8.428;2023-03-16T11:39:47;4.50;;;4.20;;
46036;SDS011;31769;49.304;8.428;2023-03-16T11:46:40;5.70;;;4.55;;
46036;SDS011;31769;49.304;8.428;2023-03-16T11:49:54;6.82;;;4.88;;
46036;SDS011;31769;49.304;8.428;2023-03-16T11:53:02;6.13;;;5.25;;
46036;SDS011;31769;49.304;8.428;2023-03-16T12:12:54;4.63;;;3.75;;
46036;SDS011;31769;49.304;8.428;2023-03-16T12:16:27;4.57;;;3.10;;
46036;SDS011;31769;49.304;8.428;2023-03-16T12:19:42;2.95;;;2.72;;
46036;SDS011;31769;49.304;8.428;2023-03-16T12:22:52;3.97;;;3.22;;
46036;SDS011;31769;49.304;8.428;2023-03-16T12:25:59;3.85;;;3.55;;
46036;SDS011;31769;49.304;8.428;2023-03-16T12:29:05;3.25;;;2.80;;
46036;SDS011;31769;49.304;8.428;2023-03-16T12:32:16;2.97;;;2.70;;
46036;SDS011;31769;49.304;8.428;2023-03-16T12:35:35;3.10;;;2.90;;
46036;SDS011;31769;49.304;8.428;2023-03-16T12:39:01;4.30;;;3.03;;
46036;SDS011;31769;49.304;8.428;2023-03-16T12:42:34;3.90;;;3.42;;
46036;SDS011;31769;49.304;8.428;2023-03-16T12:45:49;3.10;;;2.78;;
46036;SDS011;31769;49.304;8.428;2023-03-16T12:49:01;2.83;;;2.60;;
46036;SDS011;31769;49.304;8.428;2023-03-16T12:52:05;2.70;;;2.50;;
46036;SDS011;31769;49.304;8.428;2023-03-16T12:55:15;2.58;;;2.40;;
46036;SDS011;31769;49.304;8.428;2023-03-16T12:58:19;4.15;;;2.65;;
46036;SDS011;31769;49.304;8.428;2023-03-16T13:01:29;3.35;;;3.05;;
46036;SDS011;31769;49.304;8.428;2023-03-16T13:04:38;2.28;;;2.08;;
46036;SDS011;31769;49.304;8.428;2023-03-16T13:07:48;1.70;;;1.60;;
46036;SDS011;31769;49.304;8.428;2023-03-16T13:11:03;3.85;;;1.50;;
46036;SDS011;31769;49.304;8.428;2023-03-16T13:14:07;2.03;;;1.80;;
46036;SDS011;31769;49.304;8.428;2023-03-16T13:20:26;1.50;;;1.40;;
46036;SDS011;31769;49.304;8.428;2023-03-16T13:26:50;2.08;;;1.85;;
46036;SDS011;31769;49.304;8.428;2023-03-16T13:29:57;5.05;;;2.20;;
46036;SDS011;31769;49.304;8.428;2023-03-16T13:36:06;1.67;;;1.20;;
46036;SDS011;31769;49.304;8.428;2023-03-16T13:39:15;1.15;;;1.05;;
46036;SDS011;31769;49.304;8.428;2023-03-16T13:42:22;2.22;;;1.48;;
46036;SDS011;31769;49.304;8.428;2023-03-16T13:45:31;2.63;;;1.25;;
46036;SDS011;31769;49.304;8.428;2023-03-16T13:48:35;1.55;;;0.70;;
46036;SDS011;31769;49.304;8.428;2023-03-16T13:51:36;2.70;;;1.10;;
46036;SDS011;31769;49.304;8.428;2023-03-16T13:54:37;2.40;;;1.05;;
46036;SDS011;31769;49.304;8.428;2023-03-16T13:57:39;2.25;;;0.93;;
46036;SDS011;31769;49.304;8.428;2023-03-16T14:00:43;2.42;;;1.40;;
46036;SDS011;31769;49.304;8.428;2023-03-16T14:03:45;1.95;;;1.73;;
46036;SDS011;31769;49.304;8.428;2023-03-16T14:06:51;1.80;;;1.42;;
46036;SDS011;31769;49.304;8.428;2023-03-16T14:09:54;1.80;;;1.70;;
46036;SDS011;31769;49.304;8.428;2023-03-16T14:16:28;3.47;;;1.60;;
46036;SDS011;31769;49.304;8.428;2023-03-16T14:19:40;1.85;;;1.65;;
46036;SDS011;31769;49.304;8.428;2023-03-16T14:22:46;1.92;;;1.40;;
46036;SDS011;31769;49.304;8.428;2023-03-16T14:25:51;3.30;;;1.60;;
46036;SDS011;31769;49.304;8.428;2023-03-16T14:28:59;2.67;;;1.85;;
46036;SDS011;31769;49.304;8.428;2023-03-16T14:32:16;4.15;;;2.15;;
46036;SDS011;31769;49.304;8.428;2023-03-16T14:35:28;2.28;;;1.70;;
46036;SDS011;31769;49.304;8.428;2023-03-16T14:38:32;1.45;;;1.35;;
46036;SDS011;31769;49.304;8.428;2023-03-16T14:41:36;2.88;;;1.67;;
46036;SDS011;31769;49.304;8.428;2023-03-16T14:44:37;2.33;;;1.42;;
46036;SDS011;31769;49.304;8.428;2023-03-16T14:47:40;2.83;;;2.20;;
46036;SDS011;31769;49.304;8.428;2023-03-16T14:50:43;2.50;;;2.30;;
46036;SDS011;31769;49.304;8.428;2023-03-16T14:53:44;3.17;;;2.03;;
46036;SDS011;31769;49.304;8.428;2023-03-16T14:56:52;1.73;;;1.63;;
46036;SDS011;31769;49.304;8.428;2023-03-16T14:59:54;2.78;;;1.98;;
46036;SDS011;31769;49.304;8.428;2023-03-16T15:02:59;4.90;;;2.30;;
46036;SDS011;31769;49.304;8.428;2023-03-16T15:06:05;5.90;;;2.10;;
46036;SDS011;31769;49.304;8.428;2023-03-16T15:09:06;4.32;;;3.60;;
46036;SDS011;31769;49.304;8.428;2023-03-16T15:12:16;3.63;;;2.85;;
46036;SDS011;31769;49.304;8.428;2023-03-16T15:15:20;6.13;;;2.90;;
46036;SDS011;31769;49.304;8.428;2023-03-16T15:18:22;5.03;;;3.80;;
46036;SDS011;31769;49.304;8.428;2023-03-16T15:21:25;4.90;;;3.00;;
46036;SDS011;31769;49.304;8.428;2023-03-16T15:24:28;4.43;;;3.00;;
46036;SDS011;31769;49.304;8.428;2023-03-16T15:27:32;6.10;;;2.92;;
46036;SDS011;31769;49.304;8.428;2023-03-16T15:30:35;3.63;;;1.42;;
46036;SDS011;31769;49.304;8.428;2023-03-16T15:33:36;2.20;;;1.60;;
46036;SDS011;31769;49.304;8.428;2023-03-16T15:36:36;2.53;;;1.83;;
46036;SDS011;31769;49.304;8.428;2023-03-16T15:39:37;2.83;;;1.40;;
46036;SDS011;31769;49.304;8.428;2023-03-16T15:42:39;1.80;;;1.30;;
46036;SDS011;31769;49.304;8.428;2023-03-16T15:45:40;5.63;;;4.05;;
46036;SDS011;31769;49.304;8.428;2023-03-16T15:48:40;6.20;;;1.95;;
46036;SDS011;31769;49.304;8.428;2023-03-16T15:51:41;4.55;;;1.58;;
46036;SDS011;31769;49.304;8.428;2023-03-16T15:54:42;5.47;;;1.50;;
46036;SDS011;31769;49.304;8.428;2023-03-16T15:57:43;3.15;;;1.73;;
46036;SDS011;31769;49.304;8.428;2023-03-16T16:00:44;3.50;;;1.88;;
46036;SDS011;31769;49.304;8.428;2023-03-16T16:03:47;2.00;;;1.80;;
46036;SDS011;31769;49.304;8.428;2023-03-16T16:06:49;3.03;;;2.10;;
46036;SDS011;31769;49.304;8.428;2023-03-16T16:09:54;2.30;;;1.90;;
46036;SDS011;31769;49.304;8.428;2023-03-16T16:12:54;2.78;;;1.70;;
46036;SDS011;31769;49.304;8.428;2023-03-16T16:15:56;3.10;;;2.10;;
46036;SDS011;31769;49.304;8.428;2023-03-16T16:18:56;3.00;;;1.90;;
46036;SDS011;31769;49.304;8.428;2023-03-16T16:21:57;2.65;;;1.90;;
46036;SDS011;31769;49.304;8.428;2023-03-16T16:24:58;3.67;;;1.90;;
46036;SDS011;31769;49.304;8.428;2023-03-16T16:27:59;6.75;;;1.95;;
46036;SDS011;31769;49.304;8.428;2023-03-16T16:31:00;2.40;;;1.55;;
46036;SDS011;31769;49.304;8.428;2023-03-16T16:34:01;2.03;;;1.85;;
46036;SDS011;31769;49.304;8.428;2023-03-16T16:37:02;3.95;;;2.10;;
46036;SDS011;31769;49.304;8.428;2023-03-16T16:40:02;6.32;;;2.10;;
46036;SDS011;31769;49.304;8.428;2023-03-16T16:43:04;6.38;;;3.03;;
46036;SDS011;31769;49.304;8.428;2023-03-16T16:46:09;5.63;;;4.25;;
46036;SDS011;31769;49.304;8.428;2023-03-16T16:49:24;9.32;;;2.80;;
46036;SDS011;31769;49.304;8.428;2023-03-16T16:52:27;6.03;;;2.75;;
46036;SDS011;31769;49.304;8.428;2023-03-16T16:55:27;6.65;;;3.30;;
46036;SDS011;31769;49.304;8.428;2023-03-16T16:58:28;5.25;;;2.30;;
46036;SDS011;31769;49.304;8.428;2023-03-16T17:01:31;3.63;;;1.92;;
46036;SDS011;31769;49.304;8.428;2023-03-16T17:04:33;2.85;;;2.30;;
46036;SDS011;31769;49.304;8.428;2023-03-16T17:07:34;5.65;;;2.35;;
46036;SDS011;31769;49.304;8.428;2023-03-16T17:10:36;5.97;;;3.13;;
46036;SDS011;31769;49.304;8.428;2023-03-16T17:13:38;3.53;;;2.53;;
46036;SDS011;31769;49.304;8.428;2023-03-16T17:16:39;2.55;;;1.67;;
46036;SDS011;31769;49.304;8.428;2023-03-16T17:19:40;2.72;;;1.63;;
46036;SDS011;31769;49.304;8.428;2023-03-16T17:22:46;4.32;;;1.55;;
46036;SDS011;31769;49.304;8.428;2023-03-16T17:25:47;2.63;;;1.70;;
46036;SDS011;31769;49.304;8.428;2023-03-16T17:28:49;11.00;;;7.05;;
46036;SDS011;31769;49.304;8.428;2023-03-16T17:31:54;3.30;;;2.40;;
46036;SDS011;31769;49.304;8.428;2023-03-16T17:34:55;4.80;;;2.10;;
46036;SDS011;31769;49.304;8.428;2023-03-16T17:37:56;2.97;;;1.70;;
46036;SDS011;31769;49.304;8.428;2023-03-16T17:40:56;5.80;;;1.85;;
46036;SDS011;31769;49.304;8.428;2023-03-16T17:43:58;3.53;;;2.20;;
46036;SDS011;31769;49.304;8.428;2023-03-16T17:50:16;5.32;;;2.58;;
46036;SDS011;31769;49.304;8.428;2023-03-16T17:53:25;4.75;;;2.17;;
46036;SDS011;31769;49.304;8.428;2023-03-16T17:56:26;3.03;;;2.10;;
46036;SDS011;31769;49.304;8.428;2023-03-16T17:59:28;3.17;;;2.17;;
46036;SDS011;31769;49.304;8.428;2023-03-16T18:05:53;6.47;;;2.17;;
46036;SDS011;31769;49.304;8.428;2023-03-16T18:08:54;3.33;;;2.30;;
46036;SDS011;31769;49.304;8.428;2023-03-16T18:11:56;3.15;;;2.20;;
46036;SDS011;31769;49.304;8.428;2023-03-16T18:14:56;5.55;;;2.72;;
46036;SDS011;31769;49.304;8.428;2023-03-16T18:17:57;2.63;;;2.40;;
46036;SDS011;31769;49.304;8.428;2023-03-16T18:20:59;3.65;;;2.35;;
46036;SDS011;31769;49.304;8.428;2023-03-16T18:24:00;7.47;;;5.80;;
46036;SDS011;31769;49.304;8.428;2023-03-16T18:27:01;8.05;;;4.90;;
46036;SDS011;31769;49.304;8.428;2023-03-16T18:30:02;4.80;;;3.17;;
46036;SDS011;31769;49.304;8.428;2023-03-16T18:33:05;4.45;;;2.97;;
46036;SDS011;31769;49.304;8.428;2023-03-16T18:36:17;4.00;;;3.05;;
46036;SDS011;31769;49.304;8.428;2023-03-16T18:39:28;5.35;;;3.80;;
46036;SDS011;31769;49.304;8.428;2023-03-16T18:42:29;6.28;;;4.85;;
46036;SDS011;31769;49.304;8.428;2023-03-16T18:45:30;6.43;;;4.95;;
46036;SDS011;31769;49.304;8.428;2023-03-16T18:48:32;9.85;;;5.90;;
46036;SDS011;31769;49.304;8.428;2023-03-16T18:51:33;10.77;;;7.20;;
46036;SDS011;31769;49.304;8.428;2023-03-16T18:54:34;10.98;;;7.95;;
46036;SDS011;31769;49.304;8.428;2023-03-16T18:57:35;13.20;;;9.10;;
46036;SDS011;31769;49.304;8.428;2023-03-16T19:00:36;10.13;;;7.30;;
46036;SDS011;31769;49.304;8.428;2023-03-16T19:03:38;6.40;;;5.15;;
46036;SDS011;31769;49.304;8.428;2023-03-16T19:06:43;5.93;;;4.82;;
46036;SDS011;31769;49.304;8.428;2023-03-16T19:09:43;5.95;;;4.88;;
46036;SDS011;31769;49.304;8.428;2023-03-16T19:12:44;8.07;;;6.13;;
46036;SDS011;31769;49.304;8.428;2023-03-16T19:15:49;6.95;;;6.03;;
46036;SDS011;31769;49.304;8.428;2023-03-16T19:18:51;8.18;;;6.82;;
46036;SDS011;31769;49.304;8.428;2023-03-16T19:21:52;10.85;;;8.10;;
46036;SDS011;31769;49.304;8.428;2023-03-16T19:24:56;9.93;;;8.45;;
46036;SDS011;31769;49.304;8.428;2023-03-16T19:27:57;7.38;;;6.00;;
46036;SDS011;31769;49.304;8.428;2023-03-16T19:30:59;7.47;;;5.15;;
46036;SDS011;31769;49.304;8.428;2023-03-16T19:34:00;9.45;;;5.13;;